sensor_id;sensor_type;location;lat;lon;timestamp;temperature;humidity
51273;DHT22;37345;59.828;30.328;2022-11-04T00:01:20;0.90;99.90
51273;DHT22;37345;59.828;30.328;2022-11-04T00:03:46;0.90;99.90
51273;DHT22;37345;59.828;30.328;2022-11-04T00:06:15;0.90;99.90
51273;DHT22;37345;59.828;30.328;2022-11-04T00:08:41;1.10;99.90
51273;DHT22;37345;59.828;30.328;2022-11-04T00:11:08;0.80;99.90
51273;DHT22;37345;59.828;30.328;2022-11-04T00:13:52;0.80;99.90
51273;DHT22;37345;59.828;30.328;2022-11-04T00:16:18;0.80;99.90
51273;DHT22;37345;59.828;30.328;2022-11-04T00:19:02;0.90;99.90
51273;DHT22;37345;59.828;30.328;2022-11-04T00:21:28;1.00;99.90
51273;DHT22;37345;59.828;30.328;2022-11-04T00:24:13;1.10;99.90
51273;DHT22;37345;59.828;30.328;2022-11-04T00:26:58;0.80;99.90
51273;DHT22;37345;59.828;30.328;2022-11-04T00:29:43;0.90;99.90
51273;DHT22;37345;59.828;30.328;2022-11-04T00:32:09;0.80;99.90
51273;DHT22;37345;59.828;30.328;2022-11-04T00:34:53;0.80;99.90
51273;DHT22;37345;59.828;30.328;2022-11-04T00:39:45;0.20;99.90
51273;DHT22;37345;59.828;30.328;2022-11-04T00:42:11;1.00;99.90
51273;DHT22;37345;59.828;30.328;2022-11-04T00:44:37;0.90;99.90
51273;DHT22;37345;59.828;30.328;2022-11-04T00:47:03;0.90;99.90
51273;DHT22;37345;59.828;30.328;2022-11-04T00:49:29;1.20;99.90
51273;DHT22;37345;59.828;30.328;2022-11-04T00:51:55;1.30;99.90
51273;DHT22;37345;59.828;30.328;2022-11-04T00:54:21;1.20;99.90
51273;DHT22;37345;59.828;30.328;2022-11-04T00:56:46;1.10;99.90
51273;DHT22;37345;59.828;30.328;2022-11-04T00:59:15;1.20;99.90
51273;DHT22;37345;59.828;30.328;2022-11-04T01:01:41;1.20;99.90
51273;DHT22;37345;59.828;30.328;2022-11-04T01:04:08;1.00;99.90
51273;DHT22;37345;59.828;30.328;2022-11-04T01:06:34;1.00;99.90
51273;DHT22;37345;59.828;30.328;2022-11-04T01:09:04;0.90;99.90
51273;DHT22;37345;59.828;30.328;2022-11-04T01:11:30;1.10;99.90
51273;DHT22;37345;59.828;30.328;2022-11-04T01:13:57;1.10;99.90
51273;DHT22;37345;59.828;30.328;2022-11-04T01:16:23;1.10;99.90
51273;DHT22;37345;59.828;30.328;2022-11-04T01:18:50;1.10;99.90
51273;DHT22;37345;59.828;30.328;2022-11-04T01:21:16;1.00;99.90
51273;DHT22;37345;59.828;30.328;2022-11-04T01:23:43;1.20;99.90
51273;DHT22;37345;59.828;30.328;2022-11-04T01:26:17;1.10;99.90
51273;DHT22;37345;59.828;30.328;2022-11-04T01:28:44;0.90;99.90
51273;DHT22;37345;59.828;30.328;2022-11-04T01:31:12;1.00;99.90
51273;DHT22;37345;59.828;30.328;2022-11-04T01:33:39;1.10;99.90
51273;DHT22;37345;59.828;30.328;2022-11-04T01:36:06;1.00;99.90
51273;DHT22;37345;59.828;30.328;2022-11-04T01:38:32;1.00;99.90
51273;DHT22;37345;59.828;30.328;2022-11-04T01:40:58;1.10;99.90
51273;DHT22;37345;59.828;30.328;2022-11-04T01:56:09;0.70;99.90
51273;DHT22;37345;59.828;30.328;2022-11-04T01:58:46;0.70;99.90
51273;DHT22;37345;59.828;30.328;2022-11-04T02:01:13;1.00;99.90
51273;DHT22;37345;59.828;30.328;2022-11-04T02:03:51;0.90;99.90
51273;DHT22;37345;59.828;30.328;2022-11-04T02:06:18;0.90;99.90
51273;DHT22;37345;59.828;30.328;2022-11-04T02:08:46;0.90;99.90
51273;DHT22;37345;59.828;30.328;2022-11-04T02:11:12;1.00;99.90
51273;DHT22;37345;59.828;30.328;2022-11-04T02:13:58;1.00;99.90
51273;DHT22;37345;59.828;30.328;2022-11-04T02:16:36;1.00;99.90
51273;DHT22;37345;59.828;30.328;2022-11-04T02:25:05;0.70;99.90
51273;DHT22;37345;59.828;30.328;2022-11-04T02:30:20;0.70;99.90
51273;DHT22;37345;59.828;30.328;2022-11-04T02:35:33;1.00;99.90
51273;DHT22;37345;59.828;30.328;2022-11-04T02:46:15;1.20;99.90
51273;DHT22;37345;59.828;30.328;2022-11-04T02:51:40;1.00;99.90
51273;DHT22;37345;59.828;30.328;2022-11-04T02:54:24;1.00;99.90
51273;DHT22;37345;59.828;30.328;2022-11-04T02:56:54;1.00;99.90
51273;DHT22;37345;59.828;30.328;2022-11-04T02:59:28;1.00;99.90
51273;DHT22;37345;59.828;30.328;2022-11-04T03:04:27;0.90;99.90
51273;DHT22;37345;59.828;30.328;2022-11-04T03:09:22;0.90;99.90
51273;DHT22;37345;59.828;30.328;2022-11-04T03:11:54;0.90;99.90
51273;DHT22;37345;59.828;30.328;2022-11-04T03:14:34;0.90;99.90
51273;DHT22;37345;59.828;30.328;2022-11-04T03:17:05;0.90;99.90
51273;DHT22;37345;59.828;30.328;2022-11-04T03:19:48;1.00;99.90
51273;DHT22;37345;59.828;30.328;2022-11-04T03:22:20;0.90;99.90
51273;DHT22;37345;59.828;30.328;2022-11-04T03:24:47;0.80;99.90
51273;DHT22;37345;59.828;30.328;2022-11-04T03:27:38;0.80;99.90
51273;DHT22;37345;59.828;30.328;2022-11-04T03:32:45;0.70;99.90
51273;DHT22;37345;59.828;30.328;2022-11-04T03:37:43;0.80;99.90
51273;DHT22;37345;59.828;30.328;2022-11-04T03:40:10;0.80;99.90
51273;DHT22;37345;59.828;30.328;2022-11-04T03:42:42;0.60;99.90
51273;DHT22;37345;59.828;30.328;2022-11-04T03:50:10;0.40;99.90
51273;DHT22;37345;59.828;30.328;2022-11-04T03:52:38;0.60;99.90
51273;DHT22;37345;59.828;30.328;2022-11-04T03:55:06;0.70;99.90
51273;DHT22;37345;59.828;30.328;2022-11-04T03:57:55;0.60;99.90
51273;DHT22;37345;59.828;30.328;2022-11-04T04:00:25;0.50;99.90
51273;DHT22;37345;59.828;30.328;2022-11-04T04:10:57;0.50;99.90
51273;DHT22;37345;59.828;30.328;2022-11-04T04:13:43;0.50;99.90
51273;DHT22;37345;59.828;30.328;2022-11-04T04:16:37;0.50;99.90
51273;DHT22;37345;59.828;30.328;2022-11-04T04:19:12;0.60;99.90
51273;DHT22;37345;59.828;30.328;2022-11-04T04:21:51;0.60;99.90
51273;DHT22;37345;59.828;30.328;2022-11-04T04:24:22;0.50;99.90
51273;DHT22;37345;59.828;30.328;2022-11-04T04:27:06;0.50;99.90
51273;DHT22;37345;59.828;30.328;2022-11-04T04:30:06;0.40;99.90
51273;DHT22;37345;59.828;30.328;2022-11-04T04:32:43;0.50;99.90
51273;DHT22;37345;59.828;30.328;2022-11-04T04:35:11;0.40;99.90
51273;DHT22;37345;59.828;30.328;2022-11-04T04:37:59;0.40;99.90
51273;DHT22;37345;59.828;30.328;2022-11-04T04:44:00;0.60;99.90
51273;DHT22;37345;59.828;30.328;2022-11-04T04:46:47;0.50;99.90
51273;DHT22;37345;59.828;30.328;2022-11-04T04:49:14;0.50;99.90
51273;DHT22;37345;59.828;30.328;2022-11-04T04:51:47;0.40;99.90
51273;DHT22;37345;59.828;30.328;2022-11-04T04:54:13;0.40;99.90
51273;DHT22;37345;59.828;30.328;2022-11-04T04:56:39;0.70;99.90
51273;DHT22;37345;59.828;30.328;2022-11-04T04:59:05;0.60;99.90
51273;DHT22;37345;59.828;30.328;2022-11-04T05:01:31;0.50;99.90
51273;DHT22;37345;59.828;30.328;2022-11-04T05:03:57;0.40;99.90
51273;DHT22;37345;59.828;30.328;2022-11-04T05:06:23;0.60;99.90
51273;DHT22;37345;59.828;30.328;2022-11-04T05:08:48;0.80;99.90
51273;DHT22;37345;59.828;30.328;2022-11-04T05:11:14;0.70;99.90
51273;DHT22;37345;59.828;30.328;2022-11-04T05:13:40;0.80;99.90
51273;DHT22;37345;59.828;30.328;2022-11-04T05:16:08;0.90;99.90
51273;DHT22;37345;59.828;30.328;2022-11-04T05:18:35;1.00;99.90
51273;DHT22;37345;59.828;30.328;2022-11-04T05:21:05;0.80;99.90
51273;DHT22;37345;59.828;30.328;2022-11-04T05:23:32;0.70;99.90
51273;DHT22;37345;59.828;30.328;2022-11-04T05:25:58;0.60;99.90
51273;DHT22;37345;59.828;30.328;2022-11-04T05:28:24;0.60;99.90
51273;DHT22;37345;59.828;30.328;2022-11-04T05:30:50;0.50;99.90
51273;DHT22;37345;59.828;30.328;2022-11-04T05:33:16;0.60;99.90
51273;DHT22;37345;59.828;30.328;2022-11-04T05:35:41;0.70;99.90
51273;DHT22;37345;59.828;30.328;2022-11-04T05:38:10;0.60;99.90
51273;DHT22;37345;59.828;30.328;2022-11-04T05:40:36;0.60;99.90
51273;DHT22;37345;59.828;30.328;2022-11-04T06:14:49;0.60;99.90
51273;DHT22;37345;59.828;30.328;2022-11-04T06:17:17;0.50;99.90
51273;DHT22;37345;59.828;30.328;2022-11-04T06:22:14;0.40;99.90
51273;DHT22;37345;59.828;30.328;2022-11-04T06:24:40;0.40;99.90
51273;DHT22;37345;59.828;30.328;2022-11-04T06:27:07;0.50;99.90
51273;DHT22;37345;59.828;30.328;2022-11-04T06:29:33;0.40;99.90
51273;DHT22;37345;59.828;30.328;2022-11-04T06:31:59;0.40;99.90
51273;DHT22;37345;59.828;30.328;2022-11-04T06:34:24;0.30;99.90
51273;DHT22;37345;59.828;30.328;2022-11-04T06:36:50;0.30;99.90
51273;DHT22;37345;59.828;30.328;2022-11-04T06:41:45;0.10;99.90
51273;DHT22;37345;59.828;30.328;2022-11-04T06:44:11;0.10;99.90
51273;DHT22;37345;59.828;30.328;2022-11-04T06:46:41;0.00;99.90
51273;DHT22;37345;59.828;30.328;2022-11-04T06:49:14;0.00;99.90
51273;DHT22;37345;59.828;30.328;2022-11-04T06:51:40;0.10;99.90
51273;DHT22;37345;59.828;30.328;2022-11-04T06:54:06;-0.30;99.90
51273;DHT22;37345;59.828;30.328;2022-11-04T06:56:32;-0.20;99.90
51273;DHT22;37345;59.828;30.328;2022-11-04T06:58:58;-0.10;99.90
51273;DHT22;37345;59.828;30.328;2022-11-04T07:01:26;-0.30;99.90
51273;DHT22;37345;59.828;30.328;2022-11-04T07:03:55;-0.30;99.90
51273;DHT22;37345;59.828;30.328;2022-11-04T07:06:21;-0.30;99.90
51273;DHT22;37345;59.828;30.328;2022-11-04T07:08:48;-0.20;99.90
51273;DHT22;37345;59.828;30.328;2022-11-04T07:11:16;-0.30;99.90
51273;DHT22;37345;59.828;30.328;2022-11-04T07:13:45;-0.30;99.90
51273;DHT22;37345;59.828;30.328;2022-11-04T07:16:12;-0.50;99.90
51273;DHT22;37345;59.828;30.328;2022-11-04T07:18:40;-0.30;99.90
51273;DHT22;37345;59.828;30.328;2022-11-04T07:21:06;-0.30;99.90
51273;DHT22;37345;59.828;30.328;2022-11-04T07:23:32;-0.40;99.90
51273;DHT22;37345;59.828;30.328;2022-11-04T07:26:04;-0.20;99.90
51273;DHT22;37345;59.828;30.328;2022-11-04T07:28:31;-0.20;99.90
51273;DHT22;37345;59.828;30.328;2022-11-04T07:30:58;-0.30;99.90
51273;DHT22;37345;59.828;30.328;2022-11-04T07:33:25;-0.20;99.90
51273;DHT22;37345;59.828;30.328;2022-11-04T07:35:51;-0.30;99.90
51273;DHT22;37345;59.828;30.328;2022-11-04T07:40:44;-0.30;99.90
51273;DHT22;37345;59.828;30.328;2022-11-04T07:43:10;-0.40;99.90
51273;DHT22;37345;59.828;30.328;2022-11-04T07:45:36;-0.30;99.90
51273;DHT22;37345;59.828;30.328;2022-11-04T07:48:01;-0.20;99.90
51273;DHT22;37345;59.828;30.328;2022-11-04T07:50:27;-0.30;99.90
51273;DHT22;37345;59.828;30.328;2022-11-04T07:52:53;-0.30;99.90
51273;DHT22;37345;59.828;30.328;2022-11-04T07:55:19;-0.30;99.90
51273;DHT22;37345;59.828;30.328;2022-11-04T07:57:46;-0.20;99.90
51273;DHT22;37345;59.828;30.328;2022-11-04T08:00:13;-0.20;99.90
51273;DHT22;37345;59.828;30.328;2022-11-04T08:02:40;-0.20;99.90
51273;DHT22;37345;59.828;30.328;2022-11-04T08:05:07;-0.40;99.90
51273;DHT22;37345;59.828;30.328;2022-11-04T08:07:33;-0.40;99.90
51273;DHT22;37345;59.828;30.328;2022-11-04T08:09:59;-0.30;99.90
51273;DHT22;37345;59.828;30.328;2022-11-04T08:12:25;-0.30;99.90
51273;DHT22;37345;59.828;30.328;2022-11-04T08:14:52;-0.30;99.90
51273;DHT22;37345;59.828;30.328;2022-11-04T08:17:18;0.00;99.90
51273;DHT22;37345;59.828;30.328;2022-11-04T08:19:44;0.30;99.90
51273;DHT22;37345;59.828;30.328;2022-11-04T08:22:10;0.30;99.90
51273;DHT22;37345;59.828;30.328;2022-11-04T08:24:36;0.30;99.90
51273;DHT22;37345;59.828;30.328;2022-11-04T08:27:04;0.60;99.90
51273;DHT22;37345;59.828;30.328;2022-11-04T08:29:32;0.40;99.90
51273;DHT22;37345;59.828;30.328;2022-11-04T08:31:58;0.40;99.90
51273;DHT22;37345;59.828;30.328;2022-11-04T08:34:24;0.50;99.90
51273;DHT22;37345;59.828;30.328;2022-11-04T08:36:50;0.10;99.90
51273;DHT22;37345;59.828;30.328;2022-11-04T08:39:18;0.20;99.90
51273;DHT22;37345;59.828;30.328;2022-11-04T08:41:44;0.00;99.90
51273;DHT22;37345;59.828;30.328;2022-11-04T08:44:11;0.40;99.90
51273;DHT22;37345;59.828;30.328;2022-11-04T08:46:41;0.40;99.90
51273;DHT22;37345;59.828;30.328;2022-11-04T08:49:07;0.20;99.90
51273;DHT22;37345;59.828;30.328;2022-11-04T08:51:34;0.20;99.90
51273;DHT22;37345;59.828;30.328;2022-11-04T08:54:03;0.40;99.90
51273;DHT22;37345;59.828;30.328;2022-11-04T08:56:32;0.40;99.90
51273;DHT22;37345;59.828;30.328;2022-11-04T08:58:59;0.30;99.90
51273;DHT22;37345;59.828;30.328;2022-11-04T09:01:25;0.50;99.90
51273;DHT22;37345;59.828;30.328;2022-11-04T09:03:52;0.40;99.90
51273;DHT22;37345;59.828;30.328;2022-11-04T09:06:25;0.30;99.90
51273;DHT22;37345;59.828;30.328;2022-11-04T09:08:51;0.40;99.90
51273;DHT22;37345;59.828;30.328;2022-11-04T09:11:20;0.50;99.90
51273;DHT22;37345;59.828;30.328;2022-11-04T09:13:46;0.40;99.90
51273;DHT22;37345;59.828;30.328;2022-11-04T09:16:13;0.40;99.90
51273;DHT22;37345;59.828;30.328;2022-11-04T09:18:39;0.40;99.90
51273;DHT22;37345;59.828;30.328;2022-11-04T09:21:06;0.50;99.90
51273;DHT22;37345;59.828;30.328;2022-11-04T09:23:33;0.30;99.90
51273;DHT22;37345;59.828;30.328;2022-11-04T09:26:10;0.60;99.90
51273;DHT22;37345;59.828;30.328;2022-11-04T09:28:37;0.50;99.90
51273;DHT22;37345;59.828;30.328;2022-11-04T09:31:08;0.40;99.90
51273;DHT22;37345;59.828;30.328;2022-11-04T09:33:35;0.50;99.90
51273;DHT22;37345;59.828;30.328;2022-11-04T09:36:00;0.50;99.90
51273;DHT22;37345;59.828;30.328;2022-11-04T09:38:26;0.50;99.90
51273;DHT22;37345;59.828;30.328;2022-11-04T09:40:52;0.80;99.90
51273;DHT22;37345;59.828;30.328;2022-11-04T09:46:21;0.80;99.90
51273;DHT22;37345;59.828;30.328;2022-11-04T09:48:51;0.90;99.90
51273;DHT22;37345;59.828;30.328;2022-11-04T09:51:20;0.80;99.90
51273;DHT22;37345;59.828;30.328;2022-11-04T09:54:01;0.70;99.90
51273;DHT22;37345;59.828;30.328;2022-11-04T09:56:34;0.60;99.90
51273;DHT22;37345;59.828;30.328;2022-11-04T09:59:03;0.60;99.90
51273;DHT22;37345;59.828;30.328;2022-11-04T10:01:36;0.60;99.90
51273;DHT22;37345;59.828;30.328;2022-11-04T10:04:11;0.70;99.90
51273;DHT22;37345;59.828;30.328;2022-11-04T10:12:19;0.40;99.90
51273;DHT22;37345;59.828;30.328;2022-11-04T10:15:11;0.50;99.90
51273;DHT22;37345;59.828;30.328;2022-11-04T10:35:51;0.40;99.90
51273;DHT22;37345;59.828;30.328;2022-11-04T11:00:57;0.20;99.90
51273;DHT22;37345;59.828;30.328;2022-11-04T11:21:13;0.20;99.90
51273;DHT22;37345;59.828;30.328;2022-11-04T11:23:42;0.20;99.90
51273;DHT22;37345;59.828;30.328;2022-11-04T11:26:19;0.20;99.90
51273;DHT22;37345;59.828;30.328;2022-11-04T11:28:51;0.20;99.90
51273;DHT22;37345;59.828;30.328;2022-11-04T11:31:21;0.10;99.90
51273;DHT22;37345;59.828;30.328;2022-11-04T11:33:59;0.20;99.90
51273;DHT22;37345;59.828;30.328;2022-11-04T11:36:36;0.10;99.90
51273;DHT22;37345;59.828;30.328;2022-11-04T14:51:31;-0.90;99.90
51273;DHT22;37345;59.828;30.328;2022-11-04T14:56:31;-0.70;99.90
51273;DHT22;37345;59.828;30.328;2022-11-04T14:59:00;-0.90;99.90
51273;DHT22;37345;59.828;30.328;2022-11-04T15:01:29;-0.90;99.90
51273;DHT22;37345;59.828;30.328;2022-11-04T15:04:02;-0.90;99.90
51273;DHT22;37345;59.828;30.328;2022-11-04T15:06:30;-0.80;99.90
51273;DHT22;37345;59.828;30.328;2022-11-04T15:08:56;-0.80;99.90
51273;DHT22;37345;59.828;30.328;2022-11-04T15:14:29;-0.80;99.90
51273;DHT22;37345;59.828;30.328;2022-11-04T15:16:56;-0.80;99.90
51273;DHT22;37345;59.828;30.328;2022-11-04T15:59:30;-1.20;99.90
51273;DHT22;37345;59.828;30.328;2022-11-04T16:01:58;-1.10;99.90
51273;DHT22;37345;59.828;30.328;2022-11-04T16:04:26;-1.00;99.90
51273;DHT22;37345;59.828;30.328;2022-11-04T16:09:52;-1.20;99.90
51273;DHT22;37345;59.828;30.328;2022-11-04T16:12:34;-1.00;99.90
51273;DHT22;37345;59.828;30.328;2022-11-04T16:17:27;-1.20;99.90
51273;DHT22;37345;59.828;30.328;2022-11-04T16:19:56;-1.10;99.90
51273;DHT22;37345;59.828;30.328;2022-11-04T16:22:34;-0.90;99.90
51273;DHT22;37345;59.828;30.328;2022-11-04T16:27:34;-1.40;99.90
51273;DHT22;37345;59.828;30.328;2022-11-04T16:30:16;-1.30;99.90
51273;DHT22;37345;59.828;30.328;2022-11-04T16:32:44;-1.10;99.90
51273;DHT22;37345;59.828;30.328;2022-11-04T16:35:18;-1.10;99.90
51273;DHT22;37345;59.828;30.328;2022-11-04T16:37:46;-1.10;99.90
51273;DHT22;37345;59.828;30.328;2022-11-04T16:40:13;-1.10;99.90
51273;DHT22;37345;59.828;30.328;2022-11-04T16:42:39;-1.20;99.90
51273;DHT22;37345;59.828;30.328;2022-11-04T16:45:06;-1.10;99.90
51273;DHT22;37345;59.828;30.328;2022-11-04T16:47:37;-1.00;99.90
51273;DHT22;37345;59.828;30.328;2022-11-04T16:50:15;-0.90;99.90
51273;DHT22;37345;59.828;30.328;2022-11-04T16:52:41;-1.00;99.90
51273;DHT22;37345;59.828;30.328;2022-11-04T16:55:08;-1.00;99.90
51273;DHT22;37345;59.828;30.328;2022-11-04T16:57:34;-0.70;99.90
51273;DHT22;37345;59.828;30.328;2022-11-04T17:00:00;-0.80;99.90
51273;DHT22;37345;59.828;30.328;2022-11-04T17:02:28;-0.80;99.90
51273;DHT22;37345;59.828;30.328;2022-11-04T17:05:14;-0.80;99.90
51273;DHT22;37345;59.828;30.328;2022-11-04T17:07:40;-0.90;99.90
51273;DHT22;37345;59.828;30.328;2022-11-04T17:13:33;-1.10;99.90
51273;DHT22;37345;59.828;30.328;2022-11-04T17:15:52;-0.80;99.90
51273;DHT22;37345;59.828;30.328;2022-11-04T17:18:19;-1.00;99.90
51273;DHT22;37345;59.828;30.328;2022-11-04T17:20:50;-1.20;99.90
51273;DHT22;37345;59.828;30.328;2022-11-04T17:23:17;-1.10;99.90
51273;DHT22;37345;59.828;30.328;2022-11-04T17:25:43;-1.30;99.90
51273;DHT22;37345;59.828;30.328;2022-11-04T17:28:09;-1.40;99.90
51273;DHT22;37345;59.828;30.328;2022-11-04T17:30:35;-1.00;99.90
51273;DHT22;37345;59.828;30.328;2022-11-04T17:33:02;-1.00;99.90
51273;DHT22;37345;59.828;30.328;2022-11-04T17:35:33;-1.10;99.90
51273;DHT22;37345;59.828;30.328;2022-11-04T17:37:59;-1.10;99.90
51273;DHT22;37345;59.828;30.328;2022-11-04T17:40:25;-1.30;99.90
51273;DHT22;37345;59.828;30.328;2022-11-04T17:42:51;-1.30;99.90
51273;DHT22;37345;59.828;30.328;2022-11-04T17:45:35;-1.50;99.90
51273;DHT22;37345;59.828;30.328;2022-11-04T17:48:02;-1.40;99.90
51273;DHT22;37345;59.828;30.328;2022-11-04T17:50:30;-1.30;99.90
51273;DHT22;37345;59.828;30.328;2022-11-04T17:52:55;-1.30;99.90
51273;DHT22;37345;59.828;30.328;2022-11-04T17:55:21;-1.10;99.90
51273;DHT22;37345;59.828;30.328;2022-11-04T17:57:47;-1.40;99.90
51273;DHT22;37345;59.828;30.328;2022-11-04T18:00:13;-1.50;99.90
51273;DHT22;37345;59.828;30.328;2022-11-04T18:02:40;-0.90;99.90
51273;DHT22;37345;59.828;30.328;2022-11-04T18:05:06;-1.00;99.90
51273;DHT22;37345;59.828;30.328;2022-11-04T18:07:33;-1.20;99.90
51273;DHT22;37345;59.828;30.328;2022-11-04T18:09:59;-1.20;99.90
51273;DHT22;37345;59.828;30.328;2022-11-04T18:12:25;-1.40;99.90
51273;DHT22;37345;59.828;30.328;2022-11-04T18:15:09;-1.60;99.90
51273;DHT22;37345;59.828;30.328;2022-11-04T18:17:38;-1.60;99.90
51273;DHT22;37345;59.828;30.328;2022-11-04T18:20:10;-1.40;99.90
51273;DHT22;37345;59.828;30.328;2022-11-04T18:22:37;-1.40;99.90
51273;DHT22;37345;59.828;30.328;2022-11-04T18:25:04;-1.40;99.90
51273;DHT22;37345;59.828;30.328;2022-11-04T18:27:33;-1.20;99.90
51273;DHT22;37345;59.828;30.328;2022-11-04T18:29:59;-1.20;99.90
51273;DHT22;37345;59.828;30.328;2022-11-04T18:32:25;-1.40;99.90
51273;DHT22;37345;59.828;30.328;2022-11-04T18:34:51;-0.80;99.90
51273;DHT22;37345;59.828;30.328;2022-11-04T18:37:17;-0.90;99.90
51273;DHT22;37345;59.828;30.328;2022-11-04T18:39:43;-1.10;99.90
51273;DHT22;37345;59.828;30.328;2022-11-04T18:42:09;-1.20;99.90
51273;DHT22;37345;59.828;30.328;2022-11-04T18:44:35;-1.30;99.90
51273;DHT22;37345;59.828;30.328;2022-11-04T18:47:01;-1.40;99.90
51273;DHT22;37345;59.828;30.328;2022-11-04T18:49:27;-1.40;99.90
51273;DHT22;37345;59.828;30.328;2022-11-04T18:51:53;-1.30;99.90
51273;DHT22;37345;59.828;30.328;2022-11-04T18:54:19;-1.30;99.90
51273;DHT22;37345;59.828;30.328;2022-11-04T18:56:47;-1.40;99.90
51273;DHT22;37345;59.828;30.328;2022-11-04T18:59:14;-1.40;99.90
51273;DHT22;37345;59.828;30.328;2022-11-04T19:01:40;-1.50;99.90
51273;DHT22;37345;59.828;30.328;2022-11-04T19:04:07;-1.50;99.90
51273;DHT22;37345;59.828;30.328;2022-11-04T19:06:35;-1.60;99.90
51273;DHT22;37345;59.828;30.328;2022-11-04T19:09:06;-1.70;99.90
51273;DHT22;37345;59.828;30.328;2022-11-04T19:11:34;-1.80;99.90
51273;DHT22;37345;59.828;30.328;2022-11-04T19:14:06;-1.60;99.90
51273;DHT22;37345;59.828;30.328;2022-11-04T19:16:33;-1.60;99.90
51273;DHT22;37345;59.828;30.328;2022-11-04T19:19:04;-1.70;99.90
51273;DHT22;37345;59.828;30.328;2022-11-04T19:21:31;-1.50;99.90
51273;DHT22;37345;59.828;30.328;2022-11-04T19:23:58;-1.60;99.90
51273;DHT22;37345;59.828;30.328;2022-11-04T19:26:27;-1.60;99.90
51273;DHT22;37345;59.828;30.328;2022-11-04T19:28:54;-1.70;99.90
51273;DHT22;37345;59.828;30.328;2022-11-04T19:31:22;-1.70;99.90
51273;DHT22;37345;59.828;30.328;2022-11-04T19:33:52;-1.80;99.90
51273;DHT22;37345;59.828;30.328;2022-11-04T19:36:20;-1.80;99.90
51273;DHT22;37345;59.828;30.328;2022-11-04T19:38:54;-1.80;99.90
51273;DHT22;37345;59.828;30.328;2022-11-04T19:41:21;-1.70;99.90
51273;DHT22;37345;59.828;30.328;2022-11-04T19:44:09;-1.70;99.90
51273;DHT22;37345;59.828;30.328;2022-11-04T19:46:35;-1.50;99.90
51273;DHT22;37345;59.828;30.328;2022-11-04T19:49:01;-1.60;99.90
51273;DHT22;37345;59.828;30.328;2022-11-04T19:51:27;-1.60;99.90
51273;DHT22;37345;59.828;30.328;2022-11-04T19:53:53;-1.60;99.90
51273;DHT22;37345;59.828;30.328;2022-11-04T19:56:20;-1.70;99.90
51273;DHT22;37345;59.828;30.328;2022-11-04T19:58:47;-1.90;99.90
51273;DHT22;37345;59.828;30.328;2022-11-04T20:01:14;-1.90;99.90
51273;DHT22;37345;59.828;30.328;2022-11-04T20:03:40;-1.80;99.90
51273;DHT22;37345;59.828;30.328;2022-11-04T20:06:07;-1.70;99.90
51273;DHT22;37345;59.828;30.328;2022-11-04T20:08:35;-1.70;99.90
51273;DHT22;37345;59.828;30.328;2022-11-04T20:11:02;-1.70;99.90
51273;DHT22;37345;59.828;30.328;2022-11-04T20:13:28;-1.50;99.90
51273;DHT22;37345;59.828;30.328;2022-11-04T20:16:24;-1.80;99.90
51273;DHT22;37345;59.828;30.328;2022-11-04T20:18:52;-1.60;99.90
51273;DHT22;37345;59.828;30.328;2022-11-04T20:21:22;-1.80;99.90
51273;DHT22;37345;59.828;30.328;2022-11-04T20:23:48;-1.90;99.90
51273;DHT22;37345;59.828;30.328;2022-11-04T20:26:17;-1.80;99.90
51273;DHT22;37345;59.828;30.328;2022-11-04T20:28:46;-2.00;99.90
51273;DHT22;37345;59.828;30.328;2022-11-04T20:31:14;-2.00;99.90
51273;DHT22;37345;59.828;30.328;2022-11-04T20:33:44;-2.00;99.90
51273;DHT22;37345;59.828;30.328;2022-11-04T20:36:10;-2.00;99.90
51273;DHT22;37345;59.828;30.328;2022-11-04T20:38:37;-2.10;99.90
51273;DHT22;37345;59.828;30.328;2022-11-04T20:41:10;-2.20;99.90
51273;DHT22;37345;59.828;30.328;2022-11-04T20:43:47;-2.10;99.90
51273;DHT22;37345;59.828;30.328;2022-11-04T20:46:16;-2.10;99.90
51273;DHT22;37345;59.828;30.328;2022-11-04T20:48:43;-2.30;99.90
51273;DHT22;37345;59.828;30.328;2022-11-04T20:51:14;-2.30;99.90
51273;DHT22;37345;59.828;30.328;2022-11-04T20:53:41;-2.10;99.90
51273;DHT22;37345;59.828;30.328;2022-11-04T20:56:08;-2.20;99.90
51273;DHT22;37345;59.828;30.328;2022-11-04T20:58:37;-1.90;99.90
51273;DHT22;37345;59.828;30.328;2022-11-04T21:01:08;-2.20;99.90
51273;DHT22;37345;59.828;30.328;2022-11-04T21:03:35;-2.30;99.90
51273;DHT22;37345;59.828;30.328;2022-11-04T21:06:00;-2.30;99.90
51273;DHT22;37345;59.828;30.328;2022-11-04T21:08:26;-2.30;99.90
51273;DHT22;37345;59.828;30.328;2022-11-04T21:10:54;-2.30;99.90
51273;DHT22;37345;59.828;30.328;2022-11-04T21:13:23;-2.30;99.90
51273;DHT22;37345;59.828;30.328;2022-11-04T21:15:53;-2.00;99.90
51273;DHT22;37345;59.828;30.328;2022-11-04T21:18:19;-2.10;99.90
51273;DHT22;37345;59.828;30.328;2022-11-04T21:20:45;-2.10;99.90
51273;DHT22;37345;59.828;30.328;2022-11-04T21:23:12;-2.20;99.90
51273;DHT22;37345;59.828;30.328;2022-11-04T21:25:44;-2.10;99.90
51273;DHT22;37345;59.828;30.328;2022-11-04T21:28:11;-2.10;99.90
51273;DHT22;37345;59.828;30.328;2022-11-04T21:30:40;-2.00;99.90
51273;DHT22;37345;59.828;30.328;2022-11-04T21:33:06;-2.20;99.90
51273;DHT22;37345;59.828;30.328;2022-11-04T21:35:36;-2.20;99.90
51273;DHT22;37345;59.828;30.328;2022-11-04T21:38:04;-2.50;99.90
51273;DHT22;37345;59.828;30.328;2022-11-04T21:40:30;-2.50;99.90
51273;DHT22;37345;59.828;30.328;2022-11-04T21:42:56;-2.50;99.90
51273;DHT22;37345;59.828;30.328;2022-11-04T21:45:22;-2.50;99.90
51273;DHT22;37345;59.828;30.328;2022-11-04T21:47:48;-2.60;99.90
51273;DHT22;37345;59.828;30.328;2022-11-04T21:50:14;-2.40;99.90
51273;DHT22;37345;59.828;30.328;2022-11-04T21:52:40;-2.40;99.90
51273;DHT22;37345;59.828;30.328;2022-11-04T21:55:06;-2.20;99.90
51273;DHT22;37345;59.828;30.328;2022-11-04T21:57:37;-2.10;99.90
51273;DHT22;37345;59.828;30.328;2022-11-04T22:00:04;-2.30;99.90
51273;DHT22;37345;59.828;30.328;2022-11-04T22:02:33;-2.40;99.90
51273;DHT22;37345;59.828;30.328;2022-11-04T22:05:07;-2.60;99.90
51273;DHT22;37345;59.828;30.328;2022-11-04T22:07:34;-2.40;99.90
51273;DHT22;37345;59.828;30.328;2022-11-04T22:10:18;-2.40;99.90
51273;DHT22;37345;59.828;30.328;2022-11-04T22:12:44;-2.40;99.90
51273;DHT22;37345;59.828;30.328;2022-11-04T22:15:10;-2.40;99.90
51273;DHT22;37345;59.828;30.328;2022-11-04T22:17:36;-2.40;99.90
51273;DHT22;37345;59.828;30.328;2022-11-04T22:20:02;-2.50;99.90
51273;DHT22;37345;59.828;30.328;2022-11-04T22:22:29;-2.50;99.90
51273;DHT22;37345;59.828;30.328;2022-11-04T22:24:54;-2.40;99.90
51273;DHT22;37345;59.828;30.328;2022-11-04T22:27:34;-2.40;99.90
51273;DHT22;37345;59.828;30.328;2022-11-04T22:30:00;-2.40;99.90
51273;DHT22;37345;59.828;30.328;2022-11-04T22:32:26;-2.50;99.90
51273;DHT22;37345;59.828;30.328;2022-11-04T22:34:53;-2.50;99.90